Budapest, Hungary
Current Conditions -  °F | °C
As of 11:00 PM on Sunday 21 Dec 2014 (Local Time) from LHBP Reporting Station
Clear Clear  
Wind Chill: 35°   Ceiling: Unl
Heat Index: 41°   Visibility: 6mi
Dew Point: 30°   Wind: 9mph
Humidity: 65%   Direction: 260°W
Pressure: 30.36"   Gusts: NA
Location:  47.51°N, 19.08°E
Report Text: LHBP 212100Z 26008KT CAVOK 05/M01 Q1028 NOSIG
Loading
Personal Weather Stations






























Interactive Weather Map New forecast layout! Learn more

10-Day Weather Forecast

Advertisements
Track Severe Weather on mobile